createdAt,value
2023-03-20T07:06:25.634Z,10.40
2023-03-20T07:09:28.529Z,10.50
2023-03-20T07:12:31.400Z,10.50
2023-03-20T07:15:34.553Z,10.50
2023-03-20T07:18:37.774Z,10.50
2023-03-20T07:21:42.322Z,10.50
2023-03-20T07:24:47.245Z,10.50
2023-03-20T07:27:51.164Z,10.50
2023-03-20T07:30:54.061Z,10.50
2023-03-20T07:33:56.892Z,10.60
2023-03-20T07:37:01.210Z,10.60
2023-03-20T07:40:04.718Z,10.50
2023-03-20T07:43:07.553Z,10.50
2023-03-20T07:46:10.826Z,10.50
2023-03-20T07:49:13.779Z,10.50
2023-03-20T07:52:17.973Z,10.50
2023-03-20T07:55:20.653Z,10.40
2023-03-20T07:58:23.514Z,10.40
2023-03-20T08:01:26.856Z,10.40
2023-03-20T08:04:29.754Z,10.40
2023-03-20T08:07:34.014Z,10.40
2023-03-20T08:10:36.944Z,10.40
2023-03-20T08:13:39.790Z,10.40
2023-03-20T08:16:42.676Z,10.40
2023-03-20T08:19:45.764Z,10.50
2023-03-20T08:22:50.350Z,10.40
2023-03-20T08:25:55.012Z,10.50
2023-03-20T08:28:59.121Z,10.50
2023-03-20T08:32:01.798Z,10.50
2023-03-20T08:35:05.397Z,10.60
2023-03-20T08:38:13.334Z,10.60
2023-03-20T08:41:16.761Z,10.60
2023-03-20T08:44:19.625Z,10.60
2023-03-20T08:47:22.474Z,10.70
2023-03-20T08:50:26.110Z,10.70
2023-03-20T08:53:30.405Z,10.70
2023-03-20T08:56:33.206Z,10.70
2023-03-20T08:59:36.385Z,10.80
2023-03-20T09:02:39.405Z,10.80
2023-03-20T09:05:42.539Z,10.80
2023-03-20T09:08:46.696Z,10.80
2023-03-20T09:11:49.432Z,10.80
2023-03-20T09:14:52.266Z,10.90
2023-03-20T09:17:55.142Z,11.00
2023-03-20T09:20:58.035Z,11.00
2023-03-20T09:24:02.224Z,11.00
2023-03-20T09:27:05.154Z,11.10
2023-03-20T09:30:10.741Z,11.10
2023-03-20T09:33:14.778Z,11.20
2023-03-20T09:36:17.990Z,11.20
2023-03-20T09:39:22.144Z,11.30
2023-03-20T09:42:36.606Z,11.20
2023-03-20T09:45:55.435Z,11.30
2023-03-20T09:49:11.774Z,11.30
2023-03-20T09:52:25.250Z,11.40
2023-03-20T09:55:36.836Z,11.40
2023-03-20T09:58:43.289Z,11.40
2023-03-20T10:01:52.742Z,11.40
2023-03-20T10:04:56.942Z,11.40
2023-03-20T10:08:02.677Z,11.40
2023-03-20T10:11:24.663Z,11.50
2023-03-20T10:14:39.024Z,11.50
2023-03-20T10:17:55.348Z,11.50
2023-03-20T10:21:06.964Z,11.50
2023-03-20T10:24:20.383Z,11.50
2023-03-20T10:27:28.414Z,11.50
2023-03-20T10:30:43.860Z,11.40
2023-03-20T10:34:01.396Z,11.50
2023-03-20T10:37:31.832Z,11.50
2023-03-20T10:40:39.324Z,11.50
2023-03-20T10:43:46.524Z,11.50
2023-03-20T10:46:56.471Z,11.50
2023-03-20T10:50:04.242Z,11.50
2023-03-20T10:53:09.275Z,11.50
2023-03-20T10:56:20.973Z,11.60
2023-03-20T10:59:28.104Z,11.60
2023-03-20T11:02:33.084Z,11.70
2023-03-20T11:05:38.081Z,11.70
2023-03-20T11:08:47.622Z,11.70
2023-03-20T11:11:57.041Z,11.80
2023-03-20T11:15:16.976Z,11.80
2023-03-20T11:18:20.297Z,11.80
2023-03-20T11:21:26.740Z,11.80
2023-03-20T11:24:39.043Z,11.90
2023-03-20T11:27:41.841Z,11.90
2023-03-20T11:31:03.533Z,11.90
2023-03-20T11:34:27.694Z,11.90
2023-03-20T11:37:45.462Z,12.00
2023-03-20T11:40:52.330Z,12.00
2023-03-20T11:43:56.140Z,12.10
2023-03-20T11:47:04.110Z,12.10
2023-03-20T11:50:25.050Z,12.10
2023-03-20T11:53:32.676Z,12.20
2023-03-20T11:56:37.282Z,12.20
2023-03-20T11:59:41.013Z,12.30
2023-03-20T12:02:46.202Z,12.30
2023-03-20T12:05:49.073Z,12.40
2023-03-20T12:08:57.926Z,12.40
2023-03-20T12:12:04.393Z,12.50
2023-03-20T12:15:19.507Z,12.50
2023-03-20T12:18:34.435Z,12.50
2023-03-20T12:21:48.327Z,12.50
2023-03-20T12:25:04.763Z,12.50
2023-03-20T12:28:18.422Z,12.60
2023-03-20T12:31:27.924Z,12.70
2023-03-20T12:34:39.021Z,12.80
2023-03-20T12:37:41.997Z,12.90
2023-03-20T12:40:47.182Z,13.00
2023-03-20T12:44:29.107Z,13.00
2023-03-20T12:48:04.315Z,13.00
2023-03-20T12:51:16.654Z,12.90
2023-03-20T12:54:39.075Z,12.90
2023-03-20T12:58:00.511Z,12.80
2023-03-20T13:01:09.924Z,12.70
2023-03-20T13:04:46.729Z,12.60
2023-03-20T13:08:15.321Z,12.50
2023-03-20T13:11:30.331Z,12.50
2023-03-20T13:14:43.158Z,12.40
2023-03-20T13:17:53.869Z,12.40
2023-03-20T13:20:58.875Z,12.30
2023-03-20T13:24:27.169Z,12.30
2023-03-20T13:27:41.416Z,12.20
2023-03-20T13:30:54.890Z,12.20
2023-03-20T13:34:12.203Z,12.20
2023-03-20T13:37:24.370Z,12.20
2023-03-20T13:40:32.859Z,12.30
2023-03-20T13:43:43.353Z,12.30
2023-03-20T13:46:51.481Z,12.30
2023-03-20T13:50:21.293Z,12.30
2023-03-20T13:53:34.438Z,12.40
2023-03-20T13:56:54.634Z,12.40
2023-03-20T14:00:09.276Z,12.40
2023-03-20T14:03:20.353Z,12.40
2023-03-20T14:06:50.367Z,12.40
2023-03-20T14:09:55.695Z,12.40
2023-03-20T14:13:03.147Z,12.40
2023-03-20T14:16:11.809Z,12.40
2023-03-20T14:19:21.632Z,12.40
2023-03-20T14:22:31.277Z,12.30
2023-03-20T14:25:40.879Z,12.30
2023-03-20T14:28:55.052Z,12.30
2023-03-20T14:32:21.950Z,12.30
2023-03-20T14:35:28.787Z,12.30
2023-03-20T14:38:40.258Z,12.30
2023-03-20T14:41:59.754Z,12.30
2023-03-20T14:45:39.632Z,12.20
2023-03-20T14:48:50.840Z,12.20
2023-03-20T14:52:01.492Z,12.20
2023-03-20T14:55:48.501Z,12.20
2023-03-20T14:58:57.725Z,12.10
2023-03-20T15:02:04.093Z,12.10
2023-03-20T15:05:08.156Z,12.10
2023-03-20T15:08:14.315Z,12.10
2023-03-20T15:11:18.418Z,12.10
2023-03-20T15:14:24.567Z,12.10
2023-03-20T15:17:37.421Z,12.10
2023-03-20T15:20:40.947Z,12.10
2023-03-20T15:23:45.274Z,12.10
2023-03-20T15:26:53.391Z,12.10
2023-03-20T15:29:58.640Z,12.10
2023-03-20T15:33:03.103Z,12.00
2023-03-20T15:36:11.921Z,12.10
2023-03-20T15:39:17.888Z,12.00
2023-03-20T15:42:24.379Z,12.00
2023-03-20T15:45:32.105Z,12.00
2023-03-20T15:48:36.260Z,12.00
2023-03-20T15:51:39.022Z,12.00
2023-03-20T15:54:44.118Z,12.00
2023-03-20T15:57:50.266Z,11.90
2023-03-20T16:00:53.288Z,11.90
2023-03-20T16:04:01.021Z,11.90
2023-03-20T16:07:07.062Z,11.80
2023-03-20T16:10:22.394Z,11.80
2023-03-20T16:13:27.110Z,11.70
2023-03-20T16:16:37.003Z,11.70
2023-03-20T16:19:41.380Z,11.60
2023-03-20T16:22:46.615Z,11.60
2023-03-20T16:25:49.524Z,11.50
2023-03-20T16:28:56.608Z,11.40
2023-03-20T16:32:04.351Z,11.40
2023-03-20T16:35:19.039Z,11.30
2023-03-20T16:38:29.163Z,11.30
2023-03-20T16:41:34.835Z,11.30
2023-03-20T16:44:39.484Z,11.30
2023-03-20T16:47:43.288Z,11.20
2023-03-20T16:50:53.071Z,11.20
2023-03-20T16:54:01.225Z,11.20
2023-03-20T16:57:10.378Z,11.20
2023-03-20T17:00:25.938Z,11.10
2023-03-20T17:03:36.152Z,11.10
2023-03-20T17:06:48.234Z,11.10
2023-03-20T17:09:59.038Z,11.10
2023-03-20T17:13:02.517Z,11.10
2023-03-20T17:16:06.078Z,11.10
2023-03-20T17:19:15.717Z,11.10
2023-03-20T17:22:23.000Z,11.00
2023-03-20T17:25:26.221Z,11.00
2023-03-20T17:28:35.882Z,11.00
2023-03-20T17:31:39.484Z,11.00
2023-03-20T17:34:43.626Z,11.00
2023-03-20T17:37:48.707Z,11.00
2023-03-20T17:40:53.548Z,11.00
2023-03-20T17:43:57.106Z,11.00
2023-03-20T17:47:02.262Z,10.90
2023-03-20T17:50:06.579Z,10.90
2023-03-20T17:53:16.770Z,10.90
2023-03-20T17:56:19.643Z,10.90
2023-03-20T17:59:22.548Z,10.90
2023-03-20T18:02:25.530Z,10.80
2023-03-20T18:05:28.646Z,10.80
2023-03-20T18:08:33.422Z,10.80
2023-03-20T18:11:36.588Z,10.80
2023-03-20T18:14:40.284Z,10.80
2023-03-20T18:17:43.162Z,10.80
2023-03-20T18:20:46.948Z,10.80
2023-03-20T18:23:51.138Z,10.70
2023-03-20T18:26:56.757Z,10.70
2023-03-20T18:29:59.642Z,10.70
2023-03-20T18:33:02.830Z,11.40
2023-03-20T18:36:06.618Z,10.80
2023-03-20T18:39:18.096Z,10.70
2023-03-20T18:42:21.217Z,10.70
2023-03-20T18:45:27.041Z,10.70
2023-03-20T18:48:30.812Z,10.70
2023-03-20T18:51:34.344Z,10.70
2023-03-20T18:54:38.541Z,10.60
2023-03-20T18:57:43.160Z,10.60
2023-03-20T19:00:46.185Z,10.60
2023-03-20T19:03:49.772Z,10.50
2023-03-20T19:06:52.746Z,10.50
2023-03-20T19:09:56.863Z,10.40
2023-03-20T19:12:59.548Z,10.40
2023-03-20T19:16:02.421Z,10.40
2023-03-20T19:19:08.113Z,10.40
2023-03-20T19:22:26.480Z,10.40
2023-03-20T19:25:34.164Z,10.40
2023-03-20T19:28:40.951Z,10.30
2023-03-20T19:31:44.423Z,10.30
2023-03-20T19:35:35.257Z,10.20
2023-03-20T19:38:15.022Z,10.20
2023-03-20T19:41:20.166Z,10.20
2023-03-20T19:44:23.167Z,10.10
2023-03-20T19:47:26.305Z,10.10
2023-03-20T19:50:34.741Z,10.10
2023-03-20T19:53:37.556Z,10.10
2023-03-20T19:56:41.789Z,10.00
2023-03-20T19:59:44.725Z,9.90
2023-03-20T20:02:48.771Z,9.80
2023-03-20T20:05:54.202Z,9.80
2023-03-20T20:08:56.999Z,9.70
2023-03-20T20:12:01.321Z,9.70
2023-03-20T20:15:04.475Z,9.60
2023-03-20T20:18:07.512Z,9.50
2023-03-20T20:24:33.430Z,9.20
2023-03-20T20:27:37.806Z,9.10
2023-03-20T20:30:41.378Z,9.10
2023-03-20T20:34:01.232Z,9.00
2023-03-20T20:40:30.900Z,8.80
2023-03-20T20:44:11.499Z,8.70
2023-03-20T20:46:58.672Z,8.60
2023-03-20T20:50:03.701Z,8.60
2023-03-20T20:53:08.030Z,8.50
2023-03-20T20:56:10.888Z,8.50
2023-03-20T20:59:15.243Z,8.40
2023-03-20T21:02:18.190Z,8.40
2023-03-20T21:05:21.878Z,8.30
2023-03-20T21:08:25.046Z,8.30
2023-03-20T21:11:28.622Z,8.30
2023-03-20T21:14:32.780Z,8.30
2023-03-20T21:17:35.496Z,8.30
2023-03-20T21:20:38.572Z,8.20
2023-03-20T21:23:42.739Z,8.10
2023-03-20T21:26:46.172Z,8.10
2023-03-20T21:29:50.996Z,8.10
2023-03-20T21:32:53.838Z,8.10
2023-03-20T21:35:56.734Z,8.00
2023-03-20T21:39:08.206Z,8.00
2023-03-20T21:42:12.393Z,8.00
2023-03-20T21:59:25.322Z,7.80
2023-03-20T22:02:23.593Z,7.80
2023-03-20T22:06:06.831Z,7.80
2023-03-20T22:13:09.777Z,7.70
2023-03-20T22:16:21.968Z,7.70
2023-03-20T22:23:15.334Z,7.70
2023-03-20T22:43:44.637Z,7.50
2023-03-20T22:49:42.423Z,7.40
2023-03-20T22:52:49.362Z,7.40
2023-03-20T22:55:53.607Z,7.40
2023-03-20T22:58:56.415Z,7.30
2023-03-20T23:01:59.885Z,7.30
2023-03-20T23:05:03.133Z,7.30
2023-03-20T23:08:09.783Z,7.30
2023-03-20T23:11:13.384Z,7.30
2023-03-20T23:14:23.632Z,7.20
2023-03-20T23:17:27.803Z,7.20
2023-03-20T23:20:30.675Z,7.20
2023-03-20T23:23:35.454Z,7.10
2023-03-20T23:26:38.244Z,7.10
2023-03-20T23:29:41.221Z,7.10
2023-03-20T23:32:44.084Z,7.00
2023-03-20T23:35:48.385Z,7.00
2023-03-20T23:38:53.253Z,7.00
2023-03-20T23:42:12.135Z,6.90
2023-03-20T23:48:42.033Z,6.80
2023-03-20T23:51:45.420Z,6.80
2023-03-20T23:54:49.534Z,6.80
2023-03-20T23:57:52.246Z,6.70
